Startpagina
METAR-TAF:

METAR-TAF

Vliegvelden :

Hagåtña, Guam, Verenigde Staten

breedte: 13-29N, lengte: 144-48E, hoogte: 91 m

Actueel weer

Dit bericht is 47 minuten geleden gemaakt, om 23:54 UTC
Wind 7 kt uit het zuiden
Temperatuur 30°C
Vochtigheid 75%
Druk 1011 hPa
Zicht: 16.1 km
Onbewolkt

METAR: PGUM 242354Z 18007KT 10SM CLR 30/25 A2985 RMK AO2 SLP101 T03000250 10300 20250 50001

Tijdstip: 10:41 (00:41 UTC)

Verwachting

Dit bericht is 58 minuten geleden gemaakt, om 23:43 UTC
Verwachting geldig van 25 om 00 UTC tot 26 om 06 UTC
Wind 9 kt uit het zuiden
Zicht: 10 km
Verspreide wolken op 1800 ft
Verspreide wolken op 4000 ft
buien in de omgeving

TAF: PGUM 242343Z 2500/2606 18009KT P6SM VCSH SCT018 SCT040

Waarnemingen en weersverwachtingen van meer dan 4000 vliegvelden (METAR en TAF).

De beschikbare stations zijn de gele en rode punten op de kaart.

Ga met uw muis naar het station om de naam te zien.

Klik dan om waarnemingen en weersverwachtingen te zien.

kaart wijzigen: klik op de groene knoppen met een zwart kruis om in te zoomen, op de groene knop met een streepje om uit te zoomen of op de groene pijlen voor aangrenzende kaarten.


METAR-TAF: